Accueil
METAR-TAF:

METAR-TAF

Aéroports :

Altenstadt, Allemagne

latitude: 47-50N, longitude: 010-52E, altitude: 739 m

Observation

Le bulletin a été fait il y a 56 minutes, à 14:20 UTC
Vent 7 kt de est
Température 21°C
Humidité 35%
Pression 1016 hPa
Visibilité 10 km ou plus
Quelques nuages à une hauteur de 6000 ft

METAR: ETHA 021420Z 08007KT 9999 FEW060 21/05 Q1016 BLU+

Heure: 17:16 (15:16 UTC)

Prévision

Le bulletin a été fait il y a 2 heures et 6 minutes, à 13:10 UTC
Prévision valable du 02 à 14 UTC au 02 à 23 UTC
Vent 8 kt de est/nord-est
Visibilité 10 km ou plus
Quelques nuages à une hauteur de 5000 ft
Evoluant progressivement
du 02 à 19 UTC au 02 à 21 UTC
Vent 3 kt de ouest/sud-ouest
Visibilité: 1400 m
Nuages épars à une hauteur de 25000 ft

TAF: ETHA 021310Z 0214/0223 06008KT 9999 NSW FEW050 BECMG 0219/0221 24003KT 9999 NSW SCT250 CANCEL 1400

Observations et prévisions météorologiques de plus de 4000 aéroports (messages METAR et TAF).

Les stations disponibles sont représentées par des disques jaunes et rouges sur la carte.

Passer la souris dessus pour voir le nom de la station.

Cliquer dessus pour voir les observations et prévisions météorologiques.

Pour changer de carte: cliquez sur les boutons verts avec une croix noire pour zoomer, sur le bouton vert avec un tiret pour effectuer un zoom arrière, ou sur les flèches vertes pour les cartes adjacentes.


METAR-TAF: